Terminal Aerodrome Forecast
Issued by NWS

Home | Current Version | Previous Version | Text Only | Print | Product List | Glossary On
Versions: 1 2 3 4 5 6 7 8 9 10 11 12 13 14 15 16 17
000
FTUS43 KLSX 130700 AAA
TAFUIN
TAF AMD
KUIN 130732Z 1308/1406 28007KT P6SM VCSH FEW040 SCT100 OVC250
     FM130800 29008KT 4SM -SHRA VCTS SCT040CB BKN100
     FM131100 31006KT P6SM BKN100 OVC250
     FM131500 31008KT P6SM SCT050 BKN250
     FM140100 28004KT P6SM SCT250=

USA.gov is the U.S. government's official web portal to all federal, state and local government web resources and services.